Moody Air Force Base
KVAD : now visible

Airfield :











YOU CAN JOIN US ON...

 
LOGIN :

Register | Disclaimer

   EN    FR    IT 

 









Legend :    VFR   Marginal VFR   IFR   Intensive IFR   Very Intensive IFR
Visi :
Ceiling :
>= 8 km
>= 3000ft
5 to 8 km
1000 to 3000 ft
1500m to 5 km
500 to 1000 ft
800 to 1500m
200 to 500 ft
< 800m
< 200 ft
Symbols :   Thunderstorms  Fog  Heavy snow  Heavy precipitations  Wind > 20 kt







- Airport Elevation : 233 ft


KVAD - Moody Air Force Base

CURRENT METAR :
  • 211156Z AUTO 20003KT 10SM CLR 05/04 A3001 RMK AO2 SLP165 T00470044 10065 20043 53001 $

EXPIRED METARs :
  • 211056Z AUTO 00000KT 10SM CLR 05/05 A3001 RMK AO2 SLP165 T00510050 $
  • 210956Z AUTO 00000KT 10SM CLR 05/05 A3000 RMK AO2 SLP161 T00500049 $
  • 210856Z AUTO 00000KT 10SM CLR 05/04 A3001 RMK AO2 SLP165 T00490040 57015 $

TAF TAF KVAD
Valid from the 21 at 08:00 until the 22 at 14:00 UTC


210800Z 2108/2214 34006KT 9999 SKC QNH3001INS
BECMG 2114/2115 27010G15KT 9999 SKC QNH2997INS
BECMG 2116/2117 27012G25KT 9999 SKC QNH2992INS
BECMG 2122/2123 31009KT 9999 FEW050 QNH2997INS
BECMG 2203/2204 28006KT 9999 SKC QNH3002INS TX21/2119Z TN04/2111Z
KZJX FIR / North America



MET'MAP, your aeronautical weather chart ! - Copyright ORBIFLY December 2007 - Disclaimer

ORBIFLY MET'MAP TEAM :

Programming & Development : Alexandra Zaïnal
Concept & Development : Baudouin d'Aumeries
Co-Development & Prog : Marc-Olivier Méhu
Technical & hardware support : Manuel Goepfert

Contact : metmap@orbifly.com




SOURCES & CREDITS :

   NOAA       Earth
Advisory